Beech Mountain, North Carolina
Current Conditions -  °F | °C
As of 11:15 AM on Wednesday 22 Oct 2014 (Local Time) from KTNB Reporting Station
Scattered Clouds Scattered Clouds  
Wind Chill: 38°   Ceiling: Unl
Heat Index: 45°   Visibility: 10mi
Dew Point: 33°   Wind: 16mph
Humidity: 63%   Direction: 320°NW
Pressure: 30.12"   Gusts: 24mph
Location:  36.1797°N, 81.8424°W
Report Text: KTNB 221515Z AUTO 32014G21KT 10SM SCT024 SCT029 07/01 A3012 RMK AO2 T00710005
Loading
Personal Weather Stations






























Interactive Weather Map New forecast layout! Learn more

10-Day Weather Forecast

Advertisements
Track Severe Weather on mobile